PWSweather.com
Personal Weather Stations
Station Observations
KCTHAMDEN
Dunbar Hill, Hamden, CT 06514

Dunbar HillHamden, CT 06514

Lat: 41.365437, Lon: -72.956532

Elevation: 200

Station Type: Davis Vantage Pro2+

www.hamdenweather.com

High Low Average
Temperature 93.9°F34.4°C 67.4°F19.7°C 80.0°F26.7°C
Dew Point 78.3°F25.7°C 66.2°F19.0°C 72.7°F22.6°C
Winds 2.7 mph 4.3 kmh Calm Calm Calm SECalm SE
Wind Gusts 7.0 mph11.3 kmh -- 1.0 mph1.6 kmh
Humidity 98% 51% 81%
Pressure 30.10 in1019.3 mb 30.00 in1015.9 mb -
Precipitation 0.00 in0.0 mm - -
Hour Temp Dew Point Humidity Winds Wind Gusts Pressure Precip Precip Rate Daily Precip Total
12:00 AM 70.8°F21.6°C 68.7°F20.4°C 93% Calm Calm -- 30.10 in1019.3 mb - 0.00 in0.0 mm 0.00 in0.0 mm
12:15 AM 70.8°F21.6°C 69.0°F20.6°C 94% Calm Calm -- 30.10 in1019.3 mb - 0.00 in0.0 mm 0.00 in0.0 mm
12:30 AM 70.7°F21.5°C 68.9°F20.5°C 94% Calm Calm -- 30.10 in1019.3 mb - 0.00 in0.0 mm 0.00 in0.0 mm
12:45 AM 70.6°F21.4°C 68.8°F20.4°C 94% Calm Calm -- 30.09 in1019.0 mb - 0.00 in0.0 mm 0.00 in0.0 mm
01:00 AM 70.4°F21.3°C 68.9°F20.5°C 95% Calm Calm -- 30.09 in1019.0 mb - 0.00 in0.0 mm 0.00 in0.0 mm
01:15 AM 70.3°F21.3°C 68.8°F20.4°C 95% Calm Calm -- 30.10 in1019.3 mb - 0.00 in0.0 mm 0.00 in0.0 mm
01:30 AM 70.1°F21.2°C 68.6°F20.3°C 95% Calm Calm -- 30.10 in1019.3 mb - 0.00 in0.0 mm 0.00 in0.0 mm
01:45 AM 69.9°F21.1°C 68.4°F20.2°C 95% Calm Calm -- 30.09 in1019.0 mb - 0.00 in0.0 mm 0.00 in0.0 mm
02:00 AM 69.6°F20.9°C 68.1°F20.1°C 95% Calm Calm -- 30.09 in1019.0 mb - 0.00 in0.0 mm 0.00 in0.0 mm
02:15 AM 69.4°F20.8°C 67.9°F19.9°C 95% Calm Calm -- 30.09 in1019.0 mb - 0.00 in0.0 mm 0.00 in0.0 mm
02:30 AM 69.2°F20.7°C 67.7°F19.8°C 95% Calm Calm -- 30.08 in1018.6 mb - 0.00 in0.0 mm 0.00 in0.0 mm
02:45 AM 69.1°F20.6°C 67.6°F19.8°C 95% Calm Calm -- 30.08 in1018.6 mb - 0.00 in0.0 mm 0.00 in0.0 mm
03:00 AM 68.8°F20.4°C 67.3°F19.6°C 95% Calm Calm -- 30.07 in1018.3 mb - 0.00 in0.0 mm 0.00 in0.0 mm
03:15 AM 68.6°F20.3°C 67.1°F19.5°C 95% Calm Calm -- 30.07 in1018.3 mb - 0.00 in0.0 mm 0.00 in0.0 mm
03:30 AM 68.5°F20.3°C 67.0°F19.4°C 95% Calm Calm -- 30.07 in1018.3 mb - 0.00 in0.0 mm 0.00 in0.0 mm
03:45 AM 68.4°F20.2°C 66.9°F19.4°C 95% Calm Calm -- 30.07 in1018.3 mb - 0.00 in0.0 mm 0.00 in0.0 mm
04:00 AM 68.3°F20.2°C 66.8°F19.3°C 95% Calm Calm -- 30.07 in1018.3 mb - 0.00 in0.0 mm 0.00 in0.0 mm
04:15 AM 68.2°F20.1°C 67.0°F19.4°C 96% Calm Calm -- 30.07 in1018.3 mb - 0.00 in0.0 mm 0.00 in0.0 mm
04:30 AM 68.1°F20.1°C 66.6°F19.2°C 95% Calm Calm -- 30.07 in1018.3 mb - 0.00 in0.0 mm 0.00 in0.0 mm
04:45 AM 68.0°F20.0°C 66.5°F19.2°C 95% Calm Calm -- 30.07 in1018.3 mb - 0.00 in0.0 mm 0.00 in0.0 mm
05:00 AM 67.9°F19.9°C 66.7°F19.3°C 96% Calm Calm -- 30.07 in1018.3 mb - 0.00 in0.0 mm 0.00 in0.0 mm
05:15 AM 67.8°F19.9°C 66.6°F19.2°C 96% Calm Calm -- 30.08 in1018.6 mb - 0.00 in0.0 mm 0.00 in0.0 mm
05:30 AM 67.6°F19.8°C 66.4°F19.1°C 96% Calm Calm -- 30.08 in1018.6 mb - 0.00 in0.0 mm 0.00 in0.0 mm
05:45 AM 67.4°F19.7°C 66.2°F19.0°C 96% Calm Calm -- 30.08 in1018.6 mb - 0.00 in0.0 mm 0.00 in0.0 mm
06:00 AM 67.4°F19.7°C 66.2°F19.0°C 96% Calm Calm -- 30.08 in1018.6 mb - 0.00 in0.0 mm 0.00 in0.0 mm
06:15 AM 67.5°F19.7°C 66.3°F19.1°C 96% Calm Calm -- 30.08 in1018.6 mb - 0.00 in0.0 mm 0.00 in0.0 mm
06:30 AM 67.8°F19.9°C 66.9°F19.4°C 97% Calm Calm -- 30.08 in1018.6 mb - 0.00 in0.0 mm 0.00 in0.0 mm
06:45 AM 68.0°F20.0°C 66.8°F19.3°C 96% Calm Calm -- 30.08 in1018.6 mb - 0.00 in0.0 mm 0.00 in0.0 mm
07:00 AM 68.4°F20.2°C 67.5°F19.7°C 97% Calm Calm -- 30.09 in1019.0 mb - 0.00 in0.0 mm 0.00 in0.0 mm
07:15 AM 68.9°F20.5°C 68.0°F20.0°C 97% Calm Calm -- 30.09 in1019.0 mb - 0.00 in0.0 mm 0.00 in0.0 mm
07:30 AM 70.2°F21.2°C 69.3°F20.7°C 97% Calm Calm -- 30.09 in1019.0 mb - 0.00 in0.0 mm 0.00 in0.0 mm
07:45 AM 71.1°F21.7°C 70.2°F21.2°C 97% Calm Calm -- 30.09 in1019.0 mb - 0.00 in0.0 mm 0.00 in0.0 mm
08:00 AM 72.3°F22.4°C 71.7°F22.1°C 98% Calm Calm -- 30.09 in1019.0 mb - 0.00 in0.0 mm 0.00 in0.0 mm
08:15 AM 73.7°F23.2°C 73.1°F22.8°C 98% Calm Calm -- 30.09 in1019.0 mb - 0.00 in0.0 mm 0.00 in0.0 mm
08:30 AM 75.2°F24.0°C 74.6°F23.7°C 98% Calm Calm -- 30.09 in1019.0 mb - 0.00 in0.0 mm 0.00 in0.0 mm
08:45 AM 76.9°F24.9°C 76.3°F24.6°C 98% 1.2 mph S1.9 kmh S 2.0 mph3.2 kmh 30.08 in1018.6 mb - 0.00 in0.0 mm 0.00 in0.0 mm
09:00 AM 77.6°F25.3°C 76.3°F24.6°C 96% 1.0 mph S1.6 kmh S 2.0 mph3.2 kmh 30.09 in1019.0 mb - 0.00 in0.0 mm 0.00 in0.0 mm
09:15 AM 79.6°F26.4°C 77.0°F25.0°C 92% 0.8 mph S1.3 kmh S 2.0 mph3.2 kmh 30.08 in1018.6 mb - 0.00 in0.0 mm 0.00 in0.0 mm
09:30 AM 81.9°F27.7°C 77.6°F25.3°C 87% 1.6 mph S2.6 kmh S 2.0 mph3.2 kmh 30.07 in1018.3 mb - 0.00 in0.0 mm 0.00 in0.0 mm
09:45 AM 83.8°F28.8°C 76.6°F24.8°C 79% 1.3 mph ESE2.1 kmh ESE 2.0 mph3.2 kmh 30.07 in1018.3 mb - 0.00 in0.0 mm 0.00 in0.0 mm
10:00 AM 85.4°F29.7°C 77.7°F25.4°C 78% 1.7 mph ESE2.7 kmh ESE 2.0 mph3.2 kmh 30.07 in1018.3 mb - 0.00 in0.0 mm 0.00 in0.0 mm
10:15 AM 86.8°F30.4°C 77.5°F25.3°C 74% 0.5 mph S0.8 kmh S 4.0 mph6.4 kmh 30.07 in1018.3 mb - 0.00 in0.0 mm 0.00 in0.0 mm
10:30 AM 87.4°F30.8°C 78.1°F25.6°C 74% Calm Calm 1.0 mph1.6 kmh 30.07 in1018.3 mb - 0.00 in0.0 mm 0.00 in0.0 mm
10:45 AM 87.7°F30.9°C 77.1°F25.1°C 71% 1.5 mph S2.4 kmh S 2.0 mph3.2 kmh 30.07 in1018.3 mb - 0.00 in0.0 mm 0.00 in0.0 mm
11:00 AM 88.1°F31.2°C 77.9°F25.5°C 72% 1.3 mph S2.1 kmh S 2.0 mph3.2 kmh 30.08 in1018.6 mb - 0.00 in0.0 mm 0.00 in0.0 mm
11:15 AM 88.8°F31.6°C 77.8°F25.4°C 70% 1.7 mph N2.7 kmh N 3.0 mph4.8 kmh 30.08 in1018.6 mb - 0.00 in0.0 mm 0.00 in0.0 mm
11:30 AM 89.7°F32.1°C 76.8°F24.9°C 66% 0.1 mph WSW0.2 kmh WSW 2.0 mph3.2 kmh 30.07 in1018.3 mb - 0.00 in0.0 mm 0.00 in0.0 mm
11:45 AM 90.9°F32.7°C 77.0°F25.0°C 64% 2.7 mph SE4.3 kmh SE 4.0 mph6.4 kmh 30.07 in1018.3 mb - 0.00 in0.0 mm 0.00 in0.0 mm
12:00 PM 91.6°F33.1°C 77.2°F25.1°C 63% 1.2 mph ENE1.9 kmh ENE 2.0 mph3.2 kmh 30.07 in1018.3 mb - 0.00 in0.0 mm 0.00 in0.0 mm
12:15 PM 91.6°F33.1°C 74.8°F23.8°C 58% 1.2 mph S1.9 kmh S 3.0 mph4.8 kmh 30.06 in1017.9 mb - 0.00 in0.0 mm 0.00 in0.0 mm
12:30 PM 91.6°F33.1°C 77.7°F25.4°C 64% 0.3 mph ENE0.5 kmh ENE 1.0 mph1.6 kmh 30.06 in1017.9 mb - 0.00 in0.0 mm 0.00 in0.0 mm
12:45 PM 91.9°F33.3°C 77.0°F25.0°C 62% 1.7 mph S2.7 kmh S 4.0 mph6.4 kmh 30.06 in1017.9 mb - 0.00 in0.0 mm 0.00 in0.0 mm
01:00 PM 92.4°F33.6°C 72.2°F22.3°C 52% 0.9 mph W1.4 kmh W 2.0 mph3.2 kmh 30.06 in1017.9 mb - 0.00 in0.0 mm 0.00 in0.0 mm
01:15 PM 92.8°F33.8°C 72.0°F22.2°C 51% 0.7 mph W1.1 kmh W -- 30.06 in1017.9 mb - 0.00 in0.0 mm 0.00 in0.0 mm
01:30 PM 92.8°F33.8°C 74.8°F23.8°C 56% 0.2 mph SW0.3 kmh SW 1.0 mph1.6 kmh 30.05 in1017.6 mb - 0.00 in0.0 mm 0.00 in0.0 mm
01:45 PM 93.7°F34.3°C 74.0°F23.3°C 53% 1.1 mph S1.8 kmh S 5.0 mph8.0 kmh 30.05 in1017.6 mb - 0.00 in0.0 mm 0.00 in0.0 mm
02:00 PM 93.8°F34.3°C 76.3°F24.6°C 57% 2.2 mph E3.5 kmh E 6.0 mph9.7 kmh 30.04 in1017.3 mb - 0.00 in0.0 mm 0.00 in0.0 mm
02:15 PM 92.3°F33.5°C 76.9°F24.9°C 61% 1.6 mph ENE2.6 kmh ENE 7.0 mph11.3 kmh 30.04 in1017.3 mb - 0.00 in0.0 mm 0.00 in0.0 mm
02:30 PM 92.2°F33.4°C 76.8°F24.9°C 61% 0.3 mph SE0.5 kmh SE 1.0 mph1.6 kmh 30.03 in1016.9 mb - 0.00 in0.0 mm 0.00 in0.0 mm
02:45 PM 93.3°F34.1°C 78.3°F25.7°C 62% 0.8 mph SE1.3 kmh SE 2.0 mph3.2 kmh 30.03 in1016.9 mb - 0.00 in0.0 mm 0.00 in0.0 mm
03:00 PM 93.1°F33.9°C 77.7°F25.4°C 61% 0.9 mph SE1.4 kmh SE 1.0 mph1.6 kmh 30.03 in1016.9 mb - 0.00 in0.0 mm 0.00 in0.0 mm
03:15 PM 93.5°F34.2°C 76.5°F24.7°C 58% 1.2 mph WSW1.9 kmh WSW 2.0 mph3.2 kmh 30.02 in1016.6 mb - 0.00 in0.0 mm 0.00 in0.0 mm
03:30 PM 93.5°F34.2°C 76.5°F24.7°C 58% 1.0 mph SSW1.6 kmh SSW 2.0 mph3.2 kmh 30.02 in1016.6 mb - 0.00 in0.0 mm 0.00 in0.0 mm
03:45 PM 93.5°F34.2°C 76.5°F24.7°C 58% 1.0 mph SE1.6 kmh SE 2.0 mph3.2 kmh 30.01 in1016.3 mb - 0.00 in0.0 mm 0.00 in0.0 mm
04:00 PM 93.9°F34.4°C 76.4°F24.7°C 57% 2.0 mph SSE3.2 kmh SSE 2.0 mph3.2 kmh 30.01 in1016.3 mb - 0.00 in0.0 mm 0.00 in0.0 mm
04:15 PM 93.7°F34.3°C 76.2°F24.6°C 57% 1.6 mph SSW2.6 kmh SSW 3.0 mph4.8 kmh 30.01 in1016.3 mb - 0.00 in0.0 mm 0.00 in0.0 mm
04:30 PM 93.5°F34.2°C 77.0°F25.0°C 59% 2.7 mph E4.3 kmh E 4.0 mph6.4 kmh 30.00 in1015.9 mb - 0.00 in0.0 mm 0.00 in0.0 mm
04:45 PM 92.3°F33.5°C 76.4°F24.7°C 60% 1.8 mph SE2.9 kmh SE 2.0 mph3.2 kmh 30.00 in1015.9 mb - 0.00 in0.0 mm 0.00 in0.0 mm
05:00 PM 91.8°F33.2°C 76.9°F24.9°C 62% Calm Calm -- 30.00 in1015.9 mb - 0.00 in0.0 mm 0.00 in0.0 mm
05:15 PM 91.9°F33.3°C 74.0°F23.3°C 56% 0.6 mph E1.0 kmh E 1.0 mph1.6 kmh 30.00 in1015.9 mb - 0.00 in0.0 mm 0.00 in0.0 mm
05:30 PM 91.5°F33.1°C 75.6°F24.2°C 60% 1.5 mph N2.4 kmh N 2.0 mph3.2 kmh 30.00 in1015.9 mb - 0.00 in0.0 mm 0.00 in0.0 mm
05:45 PM 90.3°F32.4°C 75.1°F23.9°C 61% Calm Calm -- 30.00 in1015.9 mb - 0.00 in0.0 mm 0.00 in0.0 mm
06:00 PM 88.5°F31.4°C 75.2°F24.0°C 65% 0.2 mph SE0.3 kmh SE 1.0 mph1.6 kmh 30.00 in1015.9 mb - 0.00 in0.0 mm 0.00 in0.0 mm
06:15 PM 87.4°F30.8°C 76.0°F24.4°C 69% 0.3 mph SE0.5 kmh SE 1.0 mph1.6 kmh 30.00 in1015.9 mb - 0.00 in0.0 mm 0.00 in0.0 mm
06:30 PM 86.1°F30.1°C 73.0°F22.8°C 65% 1.0 mph SE1.6 kmh SE 2.0 mph3.2 kmh 30.00 in1015.9 mb - 0.00 in0.0 mm 0.00 in0.0 mm
06:45 PM 84.5°F29.2°C 72.8°F22.7°C 68% Calm Calm -- 30.00 in1015.9 mb - 0.00 in0.0 mm 0.00 in0.0 mm
07:00 PM 83.4°F28.6°C 73.0°F22.8°C 71% Calm Calm -- 30.00 in1015.9 mb - 0.00 in0.0 mm 0.00 in0.0 mm
07:15 PM 82.6°F28.1°C 73.4°F23.0°C 74% Calm Calm -- 30.00 in1015.9 mb - 0.00 in0.0 mm 0.00 in0.0 mm
07:30 PM 81.7°F27.6°C 73.0°F22.8°C 75% Calm Calm -- 30.00 in1015.9 mb - 0.00 in0.0 mm 0.00 in0.0 mm
07:45 PM 80.9°F27.2°C 73.4°F23.0°C 78% Calm Calm -- 30.00 in1015.9 mb - 0.00 in0.0 mm 0.00 in0.0 mm
08:00 PM 80.3°F26.8°C 74.3°F23.5°C 82% Calm Calm 1.0 mph1.6 kmh 30.01 in1016.3 mb - 0.00 in0.0 mm 0.00 in0.0 mm
08:15 PM 79.9°F26.6°C 74.3°F23.5°C 83% 0.1 mph E0.2 kmh E -- 30.01 in1016.3 mb - 0.00 in0.0 mm 0.00 in0.0 mm
08:30 PM 79.8°F26.6°C 74.5°F23.6°C 84% Calm Calm -- 30.01 in1016.3 mb - 0.00 in0.0 mm 0.00 in0.0 mm
08:45 PM 79.5°F26.4°C 74.2°F23.4°C 84% Calm Calm -- 30.01 in1016.3 mb - 0.00 in0.0 mm 0.00 in0.0 mm
09:00 PM 79.1°F26.2°C 74.2°F23.4°C 85% Calm Calm 1.0 mph1.6 kmh 30.01 in1016.3 mb - 0.00 in0.0 mm 0.00 in0.0 mm
09:15 PM 78.7°F25.9°C 74.2°F23.4°C 86% Calm Calm -- 30.02 in1016.6 mb - 0.00 in0.0 mm 0.00 in0.0 mm
09:30 PM 78.1°F25.6°C 73.9°F23.3°C 87% Calm Calm -- 30.03 in1016.9 mb - 0.00 in0.0 mm 0.00 in0.0 mm
09:45 PM 77.6°F25.3°C 73.8°F23.2°C 88% Calm Calm -- 30.03 in1016.9 mb - 0.00 in0.0 mm 0.00 in0.0 mm
10:00 PM 77.1°F25.1°C 73.2°F22.9°C 88% Calm Calm -- 30.03 in1016.9 mb - 0.00 in0.0 mm 0.00 in0.0 mm
10:15 PM 76.6°F24.8°C 73.1°F22.8°C 89% Calm Calm -- 30.02 in1016.6 mb - 0.00 in0.0 mm 0.00 in0.0 mm
10:30 PM 76.2°F24.6°C 72.7°F22.6°C 89% Calm Calm -- 30.02 in1016.6 mb - 0.00 in0.0 mm 0.00 in0.0 mm
10:45 PM 75.8°F24.3°C 72.7°F22.6°C 90% Calm Calm -- 30.02 in1016.6 mb - 0.00 in0.0 mm 0.00 in0.0 mm
11:00 PM 75.3°F24.1°C 72.2°F22.3°C 90% Calm Calm -- 30.02 in1016.6 mb - 0.00 in0.0 mm 0.00 in0.0 mm
11:15 PM 74.9°F23.8°C 71.8°F22.1°C 90% Calm Calm -- 30.02 in1016.6 mb - 0.00 in0.0 mm 0.00 in0.0 mm
11:30 PM 74.5°F23.6°C 71.3°F21.8°C 90% Calm Calm -- 30.01 in1016.3 mb - 0.00 in0.0 mm 0.00 in0.0 mm
11:45 PM 74.1°F23.4°C 71.3°F21.8°C 91% Calm Calm -- 30.01 in1016.3 mb - 0.00 in0.0 mm 0.00 in0.0 mm